Augusta, Ohio
Current Conditions -  °F | °C
As of 6:53 AM on Saturday 25 Oct 2014 (Local Time) from KPHD Reporting Station
Haze Haze  
Wind Chill: 39°   Ceiling: 9000
Heat Index: 42°   Visibility: 6mi
Dew Point: 40°   Wind: 5mph
Humidity: 92%   Direction: 130°SE
Pressure: 29.98"   Gusts: NA
Location:  40.69°N, 81.02°W
Report Text: KPHD 251053Z AUTO 13004KT 6SM BR BKN090 06/04 A2998 RMK AO2 SLP155 T00560044
Loading
Personal Weather Stations






























Interactive Weather Map
Tropical Storm Tracking
New forecast layout! Learn more

10-Day Weather Forecast

Advertisements
Track Severe Weather on mobile